createdAt,value
2023-03-22T00:02:09.946Z,67.10
2023-03-22T00:04:37.869Z,66.76
2023-03-22T00:07:07.156Z,67.06
2023-03-22T00:09:35.054Z,66.79
2023-03-22T00:12:03.027Z,66.95
2023-03-22T00:14:31.034Z,67.10
2023-03-22T00:16:59.312Z,66.29
2023-03-22T00:19:29.176Z,66.02
2023-03-22T00:21:57.091Z,66.53
2023-03-22T00:24:26.355Z,66.27
2023-03-22T00:26:54.210Z,65.48
2023-03-22T00:29:22.829Z,64.93
2023-03-22T00:31:52.036Z,65.85
2023-03-22T00:34:19.983Z,65.52
2023-03-22T00:36:48.464Z,66.59
2023-03-22T00:39:16.417Z,66.41
2023-03-22T00:41:45.687Z,65.67
2023-03-22T00:44:13.593Z,65.44
2023-03-22T00:46:41.489Z,65.29
2023-03-22T00:49:09.382Z,65.33
2023-03-22T00:51:37.395Z,65.66
2023-03-22T00:54:05.410Z,66.16
2023-03-22T00:56:33.957Z,65.77
2023-03-22T00:59:11.498Z,65.49
2023-03-22T01:01:39.576Z,66.19
2023-03-22T01:04:07.921Z,67.07
2023-03-22T01:06:36.314Z,66.57
2023-03-22T01:09:05.042Z,66.79
2023-03-22T01:11:32.964Z,66.46
2023-03-22T01:14:01.281Z,65.81
2023-03-22T01:16:30.711Z,65.80
2023-03-22T01:18:58.755Z,66.39
2023-03-22T01:21:26.913Z,66.90
2023-03-22T01:23:54.823Z,66.37
2023-03-22T01:26:22.768Z,66.81
2023-03-22T01:28:51.026Z,66.66
2023-03-22T01:31:18.951Z,67.79
2023-03-22T01:33:48.351Z,67.55
2023-03-22T01:36:16.261Z,67.74
2023-03-22T01:38:44.177Z,67.79
2023-03-22T01:41:12.159Z,67.74
2023-03-22T01:43:42.890Z,68.15
2023-03-22T01:46:11.585Z,68.45
2023-03-22T01:48:46.109Z,68.44
2023-03-22T01:51:19.662Z,68.63
2023-03-22T01:54:06.847Z,68.76
2023-03-22T01:56:38.198Z,68.61
2023-03-22T01:59:08.879Z,69.34
2023-03-22T02:01:54.009Z,69.02
2023-03-22T02:04:25.735Z,68.53
2023-03-22T02:06:58.008Z,68.81
2023-03-22T02:09:29.872Z,69.35
2023-03-22T02:12:10.084Z,69.62
2023-03-22T02:14:58.811Z,69.57
2023-03-22T02:18:01.699Z,69.66
2023-03-22T02:21:20.708Z,68.62
2023-03-22T02:24:23.572Z,69.50
2023-03-22T02:27:27.758Z,69.23
2023-03-22T02:30:07.657Z,68.74
2023-03-22T02:32:55.309Z,69.86
2023-03-22T02:35:43.116Z,69.27
2023-03-22T02:38:58.801Z,69.78
2023-03-22T02:41:39.412Z,70.00
2023-03-22T02:44:16.072Z,69.86
2023-03-22T02:46:47.934Z,70.17
2023-03-22T02:49:22.964Z,69.40
2023-03-22T02:51:59.060Z,69.48
2023-03-22T02:54:34.505Z,69.03
2023-03-22T02:57:09.369Z,69.42
2023-03-22T02:59:39.836Z,69.26
2023-03-22T03:02:10.688Z,69.16
2023-03-22T03:04:43.503Z,70.18
2023-03-22T03:07:15.485Z,69.68
2023-03-22T03:09:45.128Z,70.51
2023-03-22T03:12:20.272Z,70.41
2023-03-22T03:14:48.974Z,69.97
2023-03-22T03:17:26.421Z,70.32
2023-03-22T03:20:08.200Z,70.17
2023-03-22T03:22:46.119Z,71.20
2023-03-22T03:25:23.484Z,70.90
2023-03-22T03:28:00.622Z,70.51
2023-03-22T03:30:34.600Z,70.24
2023-03-22T03:33:09.317Z,70.33
2023-03-22T03:35:42.179Z,69.70
2023-03-22T03:38:16.123Z,70.60
2023-03-22T03:40:47.106Z,70.79
2023-03-22T03:43:17.546Z,70.19
2023-03-22T03:45:46.162Z,70.08
2023-03-22T03:48:19.992Z,70.33
2023-03-22T03:50:50.274Z,70.49
2023-03-22T03:53:18.558Z,70.67
2023-03-22T03:55:46.613Z,70.90
2023-03-22T03:58:17.236Z,70.49
2023-03-22T04:00:47.577Z,70.35
2023-03-22T04:03:15.991Z,70.63
2023-03-22T04:06:10.455Z,71.52
2023-03-22T04:08:41.484Z,71.15
2023-03-22T04:11:09.895Z,70.78
2023-03-22T04:13:39.292Z,70.94
2023-03-22T04:16:12.958Z,70.76
2023-03-22T04:18:40.978Z,70.12
2023-03-22T04:21:12.181Z,70.48
2023-03-22T04:24:10.918Z,71.13
2023-03-22T04:26:42.495Z,71.40
2023-03-22T04:29:24.580Z,71.25
2023-03-22T04:31:58.896Z,71.28
2023-03-22T04:34:32.616Z,71.38
2023-03-22T04:37:03.502Z,71.05
2023-03-22T04:39:37.392Z,71.08
2023-03-22T04:42:27.761Z,71.52
2023-03-22T04:45:12.016Z,71.48
2023-03-22T04:47:41.601Z,71.17
2023-03-22T04:50:10.628Z,70.94
2023-03-22T04:52:48.025Z,71.85
2023-03-22T04:55:16.025Z,71.71
2023-03-22T04:57:45.540Z,71.24
2023-03-22T05:00:15.618Z,72.13
2023-03-22T05:02:44.633Z,72.29
2023-03-22T05:05:22.706Z,71.84
2023-03-22T05:07:51.997Z,72.27
2023-03-22T05:10:20.295Z,72.53
2023-03-22T05:12:48.411Z,72.36
2023-03-22T05:15:21.019Z,72.26
2023-03-22T05:17:50.953Z,71.85
2023-03-22T05:20:19.004Z,71.71
2023-03-22T05:22:56.796Z,72.15
2023-03-22T05:25:27.139Z,71.77
2023-03-22T05:27:55.249Z,71.49
2023-03-22T05:30:43.964Z,71.98
2023-03-22T05:33:23.095Z,72.52
2023-03-22T05:35:55.565Z,72.54
2023-03-22T05:38:24.674Z,72.56
2023-03-22T05:40:55.308Z,72.26
2023-03-22T05:43:23.420Z,71.90
2023-03-22T05:45:53.621Z,71.40
2023-03-22T05:48:38.757Z,71.84
2023-03-22T05:51:07.981Z,71.70
2023-03-22T05:53:36.656Z,71.35
2023-03-22T05:56:13.880Z,72.17
2023-03-22T05:58:43.996Z,72.04
2023-03-22T06:01:17.545Z,71.95
2023-03-22T06:03:49.400Z,72.61
2023-03-22T06:06:28.104Z,72.17
2023-03-22T06:09:17.849Z,73.11
2023-03-22T06:11:50.696Z,72.13
2023-03-22T06:14:18.955Z,72.63
2023-03-22T06:16:59.287Z,72.18
2023-03-22T06:19:27.258Z,72.30
2023-03-22T06:21:56.281Z,72.85
2023-03-22T06:24:27.178Z,72.68
2023-03-22T06:26:55.253Z,72.94
2023-03-22T06:29:23.368Z,72.42
2023-03-22T06:31:54.425Z,72.49
2023-03-22T06:34:23.783Z,72.26
2023-03-22T06:36:51.831Z,72.27
2023-03-22T06:39:32.649Z,72.55
2023-03-22T06:42:01.096Z,72.61
2023-03-22T06:44:29.408Z,72.11
2023-03-22T06:47:08.924Z,71.72
2023-03-22T06:49:59.804Z,72.16
2023-03-22T06:52:40.793Z,73.56
2023-03-22T06:55:10.443Z,74.17
2023-03-22T06:57:38.417Z,73.60
2023-03-22T07:00:07.917Z,72.67
2023-03-22T07:02:36.387Z,71.29
2023-03-22T07:05:28.426Z,70.60
2023-03-22T07:07:56.507Z,69.83
2023-03-22T07:10:26.341Z,69.81
2023-03-22T07:12:54.380Z,70.92
2023-03-22T07:15:24.614Z,70.64
2023-03-22T07:17:59.056Z,70.86
2023-03-22T07:20:28.634Z,70.17
2023-03-22T07:22:57.615Z,70.03
2023-03-22T07:25:28.971Z,69.88
2023-03-22T07:28:08.010Z,69.87
2023-03-22T07:30:37.857Z,69.42
2023-03-22T07:33:07.059Z,69.06
2023-03-22T07:35:37.788Z,69.64
2023-03-22T07:38:06.868Z,69.37
2023-03-22T07:40:35.707Z,69.11
2023-03-22T07:43:04.721Z,67.55
2023-03-22T07:45:42.617Z,67.90
2023-03-22T07:48:42.294Z,67.62
2023-03-22T07:51:31.213Z,66.71
2023-03-22T07:53:59.451Z,67.02
2023-03-22T07:56:27.589Z,67.15
2023-03-22T07:58:55.743Z,66.53
2023-03-22T08:01:24.704Z,66.43
2023-03-22T08:04:09.253Z,66.72
2023-03-22T08:06:47.688Z,66.33
2023-03-22T08:09:15.927Z,65.54
2023-03-22T08:11:43.892Z,64.72
2023-03-22T08:14:11.859Z,64.04
2023-03-22T08:16:41.698Z,63.33
2023-03-22T08:19:09.758Z,63.64
2023-03-22T08:21:38.797Z,63.86
2023-03-22T08:24:15.551Z,63.61
2023-03-22T08:27:09.641Z,62.89
2023-03-22T08:29:47.715Z,63.34
2023-03-22T08:32:16.389Z,62.21
2023-03-22T08:34:44.835Z,62.18
2023-03-22T08:37:13.899Z,62.53
2023-03-22T08:39:45.911Z,62.10
2023-03-22T08:42:27.604Z,62.09
2023-03-22T08:44:55.557Z,61.39
2023-03-22T08:47:26.389Z,61.21
2023-03-22T08:49:58.720Z,60.60
2023-03-22T08:52:39.878Z,60.20
2023-03-22T08:55:30.185Z,60.26
2023-03-22T08:58:11.271Z,60.18
2023-03-22T09:00:49.982Z,60.16
2023-03-22T09:03:28.725Z,59.92
2023-03-22T09:05:56.942Z,59.55
2023-03-22T09:08:24.867Z,58.79
2023-03-22T09:11:00.667Z,58.81
2023-03-22T09:13:31.079Z,59.16
2023-03-22T09:16:02.377Z,58.95
2023-03-22T09:18:33.479Z,58.09
2023-03-22T09:21:05.784Z,58.45
2023-03-22T09:23:41.973Z,58.14
2023-03-22T09:26:13.057Z,58.38
2023-03-22T09:28:41.366Z,58.42
2023-03-22T09:31:11.839Z,57.83
2023-03-22T09:33:41.887Z,57.67
2023-03-22T09:36:11.942Z,57.21
2023-03-22T09:38:42.124Z,56.71
2023-03-22T09:41:17.377Z,56.12
2023-03-22T09:43:49.759Z,56.14
2023-03-22T09:46:23.264Z,56.57
2023-03-22T09:48:51.978Z,55.71
2023-03-22T09:51:38.523Z,54.84
2023-03-22T09:54:15.356Z,55.06
2023-03-22T09:56:48.893Z,55.19
2023-03-22T09:59:23.045Z,55.93
2023-03-22T10:01:57.376Z,54.36
2023-03-22T10:04:37.230Z,55.70
2023-03-22T10:07:11.736Z,54.86
2023-03-22T10:09:47.250Z,54.40
2023-03-22T10:12:24.875Z,55.59
2023-03-22T10:15:01.083Z,54.52
2023-03-22T10:17:30.724Z,54.87
2023-03-22T10:20:05.436Z,55.73
2023-03-22T10:22:37.060Z,55.17
2023-03-22T10:25:07.776Z,55.75
2023-03-22T10:27:38.411Z,55.21
2023-03-22T10:30:11.467Z,55.05
2023-03-22T10:32:56.673Z,54.36
2023-03-22T10:35:25.741Z,53.81
2023-03-22T10:37:55.872Z,54.01
2023-03-22T10:40:27.144Z,53.61
2023-03-22T10:43:00.674Z,53.20
2023-03-22T10:45:29.706Z,53.02
2023-03-22T10:48:01.147Z,53.24
2023-03-22T10:50:33.479Z,53.40
2023-03-22T10:53:05.594Z,52.40
2023-03-22T10:55:33.638Z,53.69
2023-03-22T10:58:15.698Z,53.05
2023-03-22T11:00:49.346Z,52.74
2023-03-22T11:03:37.257Z,52.68
2023-03-22T11:06:09.986Z,53.15
2023-03-22T11:08:46.628Z,52.03
2023-03-22T11:11:22.032Z,55.46
2023-03-22T11:13:57.329Z,52.63
2023-03-22T11:16:25.484Z,52.39
2023-03-22T11:18:53.820Z,52.20
2023-03-22T11:21:27.336Z,52.48
2023-03-22T11:23:59.331Z,51.87
2023-03-22T11:26:30.882Z,52.17
2023-03-22T11:29:08.251Z,51.26
2023-03-22T11:31:55.616Z,50.83
2023-03-22T11:34:27.166Z,51.66
2023-03-22T11:36:57.174Z,51.65
2023-03-22T11:39:28.348Z,54.12
2023-03-22T11:42:01.323Z,53.39
2023-03-22T11:44:35.514Z,53.27
2023-03-22T11:47:05.768Z,52.49
2023-03-22T11:49:43.218Z,50.87
2023-03-22T11:52:13.875Z,50.62
2023-03-22T11:54:43.836Z,51.51
2023-03-22T11:57:17.432Z,51.43
2023-03-22T11:59:56.359Z,52.42
2023-03-22T12:02:28.746Z,53.11
2023-03-22T12:05:06.129Z,52.76
2023-03-22T12:07:36.640Z,52.50
2023-03-22T12:10:08.454Z,52.99
2023-03-22T12:12:41.223Z,51.45
2023-03-22T12:15:17.086Z,50.71
2023-03-22T12:17:50.172Z,51.61
2023-03-22T12:20:26.854Z,52.10
2023-03-22T12:22:56.334Z,52.68
2023-03-22T12:25:28.202Z,50.74
2023-03-22T12:27:58.254Z,51.24
2023-03-22T12:30:31.204Z,50.81
2023-03-22T12:33:03.703Z,50.35
2023-03-22T12:35:34.449Z,49.71
2023-03-22T12:38:10.988Z,49.95
2023-03-22T12:40:42.156Z,50.15
2023-03-22T12:43:17.059Z,50.43
2023-03-22T12:45:50.235Z,47.53
2023-03-22T12:48:21.749Z,48.05
2023-03-22T12:50:54.093Z,45.92
2023-03-22T12:53:26.786Z,45.67
2023-03-22T12:55:56.868Z,46.50
2023-03-22T12:58:27.192Z,45.84
2023-03-22T13:00:59.982Z,46.38
2023-03-22T13:03:31.210Z,46.16
2023-03-22T13:06:06.125Z,43.54
2023-03-22T13:09:13.075Z,44.81
2023-03-22T13:11:41.274Z,44.72
2023-03-22T13:14:12.559Z,44.76
2023-03-22T13:16:51.949Z,44.50
2023-03-22T13:19:30.008Z,43.08
2023-03-22T13:22:17.642Z,43.26
2023-03-22T13:25:06.366Z,44.77
2023-03-22T13:27:37.961Z,42.99
2023-03-22T13:30:15.285Z,43.14
2023-03-22T13:32:51.995Z,42.99
2023-03-22T13:35:24.835Z,42.73
2023-03-22T13:37:53.286Z,43.27
2023-03-22T13:40:30.970Z,42.38
2023-03-22T13:43:12.200Z,43.02
2023-03-22T13:45:59.451Z,42.93
2023-03-22T13:48:40.920Z,45.71
2023-03-22T13:51:14.856Z,42.64
2023-03-22T13:53:47.534Z,41.77
2023-03-22T13:56:34.040Z,41.04
2023-03-22T13:59:04.990Z,42.30
2023-03-22T14:01:36.248Z,42.42
2023-03-22T14:04:10.655Z,42.21
2023-03-22T14:06:46.110Z,40.75
2023-03-22T14:09:21.982Z,41.83
2023-03-22T14:11:54.824Z,42.04
2023-03-22T14:14:28.394Z,41.16
2023-03-22T14:17:04.909Z,41.06
2023-03-22T14:19:35.965Z,41.37
